Yankee Lake, Ohio
Current Conditions -  °F | °C
As of 10:51 AM on Thursday 29 Jan 2015 (Local Time) from KYNG Reporting Station
Freezing Rain Freezing Rain  
Wind Chill: 20°   Ceiling: 2200
Heat Index: 31°   Visibility: 6mi
Dew Point: 19°   Wind: 15mph
Humidity: 61%   Direction: 160°SSE
Pressure: 29.86"   Gusts: 21mph
Location:  41.2384°N, 80.5799°W
Report Text: KYNG 291551Z 16013G18KT 6SM -FZRA BKN022 OVC050 M01/M07 A2986 RMK AO2 PLE1457 SLP126 P0001 I1000 T10061072
Loading
Personal Weather Stations






























Interactive Weather Map New forecast layout! Learn more

10-Day Weather Forecast

Advertisements
Track Severe Weather on mobile